KGUC

Gunnison-Crested Butte Regional Airport

Gunnison, Colorado, USA
KGUC 180525Z 1806/1906 10015KT P6SM FEW070 OVC080 FM181400 VRB04KT P6SM FEW050 SCT200 FM182000 VRB03KT P6SM SCT060 BKN120 FM190000 30006KT P6SM SCT050 BKN090
Issued Valid From Valid To
Oct-18 @ 05:25 UTC
(6 hours ago)
Oct-18 @ 06:00 UTC
(6 hours ago)
Oct-19 @ 06:00 UTC
(in 18 hours)
Oct-18 @ 06:00 to Oct-18 @ 14:00
KGUC 180525Z 1806/1906 10015KT P6SM FEW070 OVC080
Wind Visibility Clouds
100° at 15 knots Greater than 6 miles
  • Few at 7,000' AGL
  • Overcast at 8,000' AGL
From Oct-18 @ 14:00 to Oct-18 @ 20:00
FM181400 VRB04KT P6SM FEW050 SCT200
Wind Visibility Clouds
Variable at 4 knots Greater than 6 miles
  • Few at 5,000' AGL
  • Scattered at 20,000' AGL
From Oct-18 @ 20:00 to Oct-19 @ 00:00
FM182000 VRB03KT P6SM SCT060 BKN120
Wind Visibility Clouds
Variable at 3 knots Greater than 6 miles
  • Scattered at 6,000' AGL
  • Broken at 12,000' AGL
From Oct-19 @ 00:00 to Oct-19 @ 06:00
FM190000 30006KT P6SM SCT050 BKN090
Wind Visibility Clouds
300° at 6 knots Greater than 6 miles
  • Scattered at 5,000' AGL
  • Broken at 9,000' AGL
KGUC 180525Z 1806/1906 10015KT P6SM FEW070 OVC080 FM181400 VRB04KT P6SM FEW050 SCT200 FM182000 VRB03KT P6SM SCT060 BKN120 FM190000 30006KT P6SM SCT050 BKN090
Issued Oct-18 @ 05:25 UTC
(6 hours ago)
Valid From Oct-18 @ 06:00 UTC
(6 hours ago)
Valid To Oct-19 @ 06:00 UTC
(in 18 hours)
Oct-18 @ 06:00 - Oct-18 @ 14:00
Wind Visibility
100° at 15 knots Greater than 6 miles
Clouds
  • Few at 7,000' AGL
  • Overcast at 8,000' AGL
From Oct-18 @ 14:00 - Oct-18 @ 20:00
Wind Visibility
Variable at 4 knots Greater than 6 miles
Clouds
  • Few at 5,000' AGL
  • Scattered at 20,000' AGL
From Oct-18 @ 20:00 - Oct-19 @ 00:00
Wind Visibility
Variable at 3 knots Greater than 6 miles
Clouds
  • Scattered at 6,000' AGL
  • Broken at 12,000' AGL
From Oct-19 @ 00:00 - Oct-19 @ 06:00
Wind Visibility
300° at 6 knots Greater than 6 miles
Clouds
  • Scattered at 5,000' AGL
  • Broken at 9,000' AGL